ADDS METAR Data INFO
IDs: Format: Raw Decoded Include TAF

Data at: 1211 UTC 21 Jun 2018

KBDL 211151Z 36007KT 10SM FEW010 FEW120 SCT200 19/14 A2977 RMK AO2 SLP081 T01940139 10194 20150 51007
KBDL 211051Z 03003KT 10SM FEW120 SCT150 BKN250 18/15 A2977 RMK AO2 SLP081 BKN V SCT T01780150
KBDL 210951Z 00000KT 10SM FEW085 SCT120 BKN140 BKN250 17/15 A2976 RMK AO2 SLP075 T01670150
KBDL 210851Z 00000KT 10SM FEW080 SCT095 BKN130 BKN250 16/15 A2975 RMK AO2 SLP074 T01610150 56006
KBDL 210751Z 00000KT 10SM FEW100 SCT140 BKN250 16/14 A2975 RMK AO2 SLP074 T01560144
KBDL 210651Z 22005KT 10SM FEW120 SCT140 18/15 A2976 RMK AO2 SLP075 T01780150
KBDL 210551Z 28004KT 10SM FEW090 SCT140 SCT250 17/16 A2977 RMK AO2 SLP080 T01670156 10244 20167 56006
KBDL 210451Z 00000KT 10SM FEW150 SCT240 17/16 A2978 RMK AO2 SLP083 T01720156 402830122
KBDL 210351Z 00000KT 10SM FEW120 FEW210 SCT240 19/16 A2978 RMK AO2 SLP083 T01890156
KBDL 210251Z 27003KT 10SM FEW140 SCT220 BKN250 21/16 A2979 RMK AO2 SLP086 T02060161 51005
KBDL 210151Z 27003KT 10SM FEW140 BKN200 BKN240 22/15 A2979 RMK AO2 SLP086 T02220150
KBDL 210051Z 29003KT 10SM FEW120 FEW170 BKN190 BKN220 23/16 A2978 RMK AO2 SLP082 VIRGA ALQDS T02280156
KBDL 202351Z 26007KT 10SM FEW120 BKN150 BKN200 BKN240 24/15 A2977 RMK AO2 SLP081 VIRGA NE-SE-SW T02440150 10283 20244 55007
KBDL 202251Z COR 30005KT 10SM FEW120 SCT150 BKN170 BKN250 26/13 A2977 RMK AO2 VIRGA ALQDS SLP080 T02560133
KBDL 202151Z 31006KT 10SM FEW055 FEW100 SCT140 BKN190 BKN250 26/13 A2978 RMK AO2 SLP083 VIRGA ALQDS T02610133
KBDL 202051Z 25008KT 10SM FEW060 FEW110 BKN160 BKN250 27/12 A2979 RMK AO2 SLP088 T02720122 58014
KBDL 201951Z VRB03G14KT 10SM FEW060 SCT100 BKN170 BKN250 27/13 A2981 RMK AO2 SLP093 VIRGA W-NW T02720128
KBDL 201851Z 22004KT 10SM FEW060 BKN160 BKN180 BKN250 27/12 A2982 RMK AO2 SLP097 T02670122
KBDL 201751Z 25006KT 10SM FEW060 FEW150 BKN190 BKN250 26/12 A2983 RMK AO2 SLP101 T02610117 10278 20178 58020
KBDL 201651Z 26005KT 10SM SCT180 BKN200 BKN250 26/12 A2986 RMK AO2 SLP111 T02560117
KBDL 201551Z 22006KT 10SM BKN180 BKN250 25/13 A2988 RMK AO2 SLP118 T02500128
KBDL 201451Z 22006KT 10SM BKN180 BKN250 22/12 A2989 RMK AO2 SLP121 T02220117 58013
KBDL 201351Z 00000KT 10SM BKN180 BKN250 22/12 A2991 RMK AO2 SLP126 T02170117
KBDL 201251Z 00000KT 10SM BKN200 BKN250 20/12 A2992 RMK AO2 SLP131 T02000122
KBDL 201151Z 34003KT 10SM BKN200 18/13 A2993 RMK AO2 SLP135 T01780128 10178 20122 51010
KBDL 201051Z 00000KT 10SM BKN200 BKN250 16/13 A2992 RMK AO2 SLP132 T01610128
KBDL 200951Z 00000KT 10SM FEW200 FEW250 13/12 A2992 RMK AO2 SLP129 T01330117
KBDL 200851Z 00000KT 10SM FEW250 13/12 A2990 RMK AO2 VIS 2 1/2 RWY 6-24 SLP124 T01330117 55000
KBDL 200751Z 01003KT 10SM SCT250 14/12 A2989 RMK AO2 SLP121 T01390117
KBDL 200651Z 36005KT 10SM BKN250 15/12 A2989 RMK AO2 SLP120 T01500117
KBDL 200551Z 00000KT 10SM FEW200 BKN250 16/12 A2990 RMK AO2 SLP124 T01560117 10239 20156 51006
KBDL 200451Z 34003KT 10SM FEW200 BKN250 17/11 A2990 RMK AO2 SLP122 T01670111 402940161
KBDL 200351Z 00000KT 10SM FEW200 BKN250 18/11 A2990 RMK AO2 SLP122 T01830111
KBDL 200251Z 33003KT 10SM SCT180 SCT220 19/11 A2988 RMK AO2 SLP118 T01890106 51018
KBDL 200151Z 01006KT 10SM SCT180 BKN220 21/11 A2987 RMK AO2 SLP114 T02060106
KBDL 200051Z 35007KT 10SM FEW110 SCT180 BKN220 BKN250 22/11 A2985 RMK AO2 SLP108 T02220111